Aviation Digital Data Service (ADDS)

Output produced by METARs form (1312 UTC 01 November 2014)
found at http://aviationweather.gov/adds/metars/
 
KBPT 011120Z 0112/0212 05012KT P6SM SKC 
     FM020100 04004KT P6SM SKC